KRKR/RKR METAR and TAF weather

Enter ICAO airport designator
Station Type Date Time Source
KRKR METAR 2022/01/19 19:55 UTC NOAA

KRKR 191955Z AUTO 35016G25KT 10SM OVC021 09/04 A2998 RMK AO2 LTG DSNT SE


Station Type Date Time Source
KRKR Decoded METAR 2022/01/19 19:55 UTC NOAA

Poteau, Robert S Kerr Airport, OK, United States (KRKR) 35-01-18N 094-37-17W
Jan 19, 2022 - 02:55 PM EST / 2022.01.19 1955 UTC
Wind: from the N (350 degrees) at 18 MPH (16 KT) gusting to 29 MPH (25 KT):0
Visibility: 10 mile(s):0
Sky conditions: overcast
Weather: Lightning observed
Temperature: 48 F (9 C)
Dew Point: 39 F (4 C)
Relative Humidity: 70%
Pressure (altimeter): 29.98 in. Hg (1015 hPa)
ob: KRKR 191955Z AUTO 35016G25KT 10SM OVC021 09/04 A2998 RMK AO2 LTG DSNT SE
cycle: 20

Station Type Date Time Source
KRKR TAF UTC NOAA

Error!

Example: see airport list